sensor_id;sensor_type;location;lat;lon;timestamp;P1;durP1;ratioP1;P2;durP2;ratioP2
79464;SDS011;68932;47.410;8.232;2023-11-19T00:00:16;5.00;;;3.70;;
79464;SDS011;68932;47.410;8.232;2023-11-19T00:02:44;4.10;;;3.30;;
79464;SDS011;68932;47.410;8.232;2023-11-19T00:05:13;4.00;;;3.60;;
79464;SDS011;68932;47.410;8.232;2023-11-19T00:07:41;4.30;;;3.40;;
79464;SDS011;68932;47.410;8.232;2023-11-19T00:10:10;6.90;;;3.30;;
79464;SDS011;68932;47.410;8.232;2023-11-19T00:12:39;5.00;;;3.50;;
79464;SDS011;68932;47.410;8.232;2023-11-19T00:15:09;4.30;;;3.50;;
79464;SDS011;68932;47.410;8.232;2023-11-19T00:17:38;5.60;;;3.50;;
79464;SDS011;68932;47.410;8.232;2023-11-19T00:20:08;4.90;;;3.70;;
79464;SDS011;68932;47.410;8.232;2023-11-19T00:22:37;6.10;;;3.40;;
79464;SDS011;68932;47.410;8.232;2023-11-19T00:25:07;4.30;;;3.50;;
79464;SDS011;68932;47.410;8.232;2023-11-19T00:27:36;4.40;;;3.20;;
79464;SDS011;68932;47.410;8.232;2023-11-19T00:30:05;5.30;;;4.10;;
79464;SDS011;68932;47.410;8.232;2023-11-19T00:32:34;4.80;;;3.90;;
79464;SDS011;68932;47.410;8.232;2023-11-19T00:35:03;4.30;;;3.70;;
79464;SDS011;68932;47.410;8.232;2023-11-19T00:37:32;6.60;;;3.90;;
79464;SDS011;68932;47.410;8.232;2023-11-19T00:40:00;4.30;;;3.60;;
79464;SDS011;68932;47.410;8.232;2023-11-19T00:42:28;4.70;;;3.50;;
79464;SDS011;68932;47.410;8.232;2023-11-19T00:44:56;5.30;;;4.00;;
79464;SDS011;68932;47.410;8.232;2023-11-19T00:47:25;4.90;;;3.50;;
79464;SDS011;68932;47.410;8.232;2023-11-19T00:49:53;5.40;;;3.70;;
79464;SDS011;68932;47.410;8.232;2023-11-19T00:52:21;5.20;;;3.80;;
79464;SDS011;68932;47.410;8.232;2023-11-19T00:54:49;4.50;;;3.30;;
79464;SDS011;68932;47.410;8.232;2023-11-19T00:57:17;5.00;;;3.20;;
79464;SDS011;68932;47.410;8.232;2023-11-19T00:59:46;4.90;;;3.60;;
79464;SDS011;68932;47.410;8.232;2023-11-19T01:02:14;4.80;;;4.00;;
79464;SDS011;68932;47.410;8.232;2023-11-19T01:04:42;4.70;;;3.50;;
79464;SDS011;68932;47.410;8.232;2023-11-19T01:07:10;4.80;;;3.60;;
79464;SDS011;68932;47.410;8.232;2023-11-19T01:09:41;4.70;;;3.30;;
79464;SDS011;68932;47.410;8.232;2023-11-19T01:12:09;4.30;;;3.30;;
79464;SDS011;68932;47.410;8.232;2023-11-19T01:14:37;4.20;;;3.40;;
79464;SDS011;68932;47.410;8.232;2023-11-19T01:17:06;6.80;;;3.60;;
79464;SDS011;68932;47.410;8.232;2023-11-19T01:19:34;5.10;;;4.40;;
79464;SDS011;68932;47.410;8.232;2023-11-19T01:22:02;5.40;;;3.90;;
79464;SDS011;68932;47.410;8.232;2023-11-19T01:24:31;6.50;;;4.70;;
79464;SDS011;68932;47.410;8.232;2023-11-19T01:26:59;5.70;;;4.70;;
79464;SDS011;68932;47.410;8.232;2023-11-19T01:29:27;6.10;;;4.60;;
79464;SDS011;68932;47.410;8.232;2023-11-19T01:31:55;6.60;;;4.50;;
79464;SDS011;68932;47.410;8.232;2023-11-19T01:34:23;5.60;;;4.50;;
79464;SDS011;68932;47.410;8.232;2023-11-19T01:36:52;4.80;;;3.70;;
79464;SDS011;68932;47.410;8.232;2023-11-19T01:39:20;4.90;;;4.00;;
79464;SDS011;68932;47.410;8.232;2023-11-19T01:41:48;5.10;;;3.80;;
79464;SDS011;68932;47.410;8.232;2023-11-19T01:44:16;4.80;;;3.80;;
79464;SDS011;68932;47.410;8.232;2023-11-19T01:46:45;6.20;;;4.50;;
79464;SDS011;68932;47.410;8.232;2023-11-19T01:49:15;4.50;;;3.90;;
79464;SDS011;68932;47.410;8.232;2023-11-19T01:51:44;5.00;;;3.60;;
79464;SDS011;68932;47.410;8.232;2023-11-19T01:54:13;5.70;;;4.30;;
79464;SDS011;68932;47.410;8.232;2023-11-19T01:56:41;5.80;;;4.80;;
79464;SDS011;68932;47.410;8.232;2023-11-19T01:59:10;6.60;;;5.00;;
79464;SDS011;68932;47.410;8.232;2023-11-19T02:01:40;6.80;;;5.00;;
79464;SDS011;68932;47.410;8.232;2023-11-19T02:04:09;6.50;;;4.30;;
79464;SDS011;68932;47.410;8.232;2023-11-19T02:06:39;5.00;;;4.00;;
79464;SDS011;68932;47.410;8.232;2023-11-19T02:09:09;5.00;;;3.70;;
79464;SDS011;68932;47.410;8.232;2023-11-19T02:11:37;6.60;;;5.40;;
79464;SDS011;68932;47.410;8.232;2023-11-19T02:14:07;6.20;;;4.60;;
79464;SDS011;68932;47.410;8.232;2023-11-19T02:16:35;6.90;;;5.00;;
79464;SDS011;68932;47.410;8.232;2023-11-19T02:19:04;7.60;;;5.80;;
79464;SDS011;68932;47.410;8.232;2023-11-19T02:21:32;8.00;;;5.50;;
79464;SDS011;68932;47.410;8.232;2023-11-19T02:24:00;6.50;;;5.40;;
79464;SDS011;68932;47.410;8.232;2023-11-19T02:26:33;6.30;;;5.00;;
79464;SDS011;68932;47.410;8.232;2023-11-19T02:29:06;7.00;;;5.00;;
79464;SDS011;68932;47.410;8.232;2023-11-19T02:31:35;6.00;;;5.00;;
79464;SDS011;68932;47.410;8.232;2023-11-19T02:34:03;6.50;;;4.40;;
79464;SDS011;68932;47.410;8.232;2023-11-19T02:36:31;7.20;;;5.00;;
79464;SDS011;68932;47.410;8.232;2023-11-19T02:39:00;6.40;;;4.60;;
79464;SDS011;68932;47.410;8.232;2023-11-19T02:41:28;6.70;;;4.80;;
79464;SDS011;68932;47.410;8.232;2023-11-19T02:43:56;6.50;;;4.60;;
79464;SDS011;68932;47.410;8.232;2023-11-19T02:46:24;6.50;;;4.90;;
79464;SDS011;68932;47.410;8.232;2023-11-19T02:48:53;6.40;;;4.90;;
79464;SDS011;68932;47.410;8.232;2023-11-19T02:51:21;6.00;;;4.60;;
79464;SDS011;68932;47.410;8.232;2023-11-19T02:53:49;8.80;;;4.90;;
79464;SDS011;68932;47.410;8.232;2023-11-19T02:56:18;8.70;;;4.80;;
79464;SDS011;68932;47.410;8.232;2023-11-19T02:58:46;5.80;;;4.50;;
79464;SDS011;68932;47.410;8.232;2023-11-19T03:01:14;7.70;;;4.60;;
79464;SDS011;68932;47.410;8.232;2023-11-19T03:03:50;5.60;;;4.30;;
79464;SDS011;68932;47.410;8.232;2023-11-19T03:06:18;6.50;;;4.60;;
79464;SDS011;68932;47.410;8.232;2023-11-19T03:08:46;5.50;;;3.90;;
79464;SDS011;68932;47.410;8.232;2023-11-19T03:11:15;5.80;;;4.00;;
79464;SDS011;68932;47.410;8.232;2023-11-19T03:13:43;4.70;;;3.80;;
79464;SDS011;68932;47.410;8.232;2023-11-19T03:16:12;6.90;;;5.10;;
79464;SDS011;68932;47.410;8.232;2023-11-19T03:18:40;6.70;;;4.70;;
79464;SDS011;68932;47.410;8.232;2023-11-19T03:21:08;5.20;;;4.50;;
79464;SDS011;68932;47.410;8.232;2023-11-19T03:23:36;6.90;;;4.90;;
79464;SDS011;68932;47.410;8.232;2023-11-19T03:26:05;6.00;;;4.60;;
79464;SDS011;68932;47.410;8.232;2023-11-19T03:28:34;4.90;;;4.00;;
79464;SDS011;68932;47.410;8.232;2023-11-19T03:31:02;5.70;;;4.20;;
79464;SDS011;68932;47.410;8.232;2023-11-19T03:33:32;5.60;;;4.40;;
79464;SDS011;68932;47.410;8.232;2023-11-19T03:36:01;7.70;;;4.60;;
79464;SDS011;68932;47.410;8.232;2023-11-19T03:38:29;7.00;;;5.30;;
79464;SDS011;68932;47.410;8.232;2023-11-19T03:40:58;7.00;;;5.10;;
79464;SDS011;68932;47.410;8.232;2023-11-19T03:43:26;5.20;;;3.90;;
79464;SDS011;68932;47.410;8.232;2023-11-19T03:45:54;8.60;;;4.40;;
79464;SDS011;68932;47.410;8.232;2023-11-19T03:48:23;5.80;;;4.70;;
79464;SDS011;68932;47.410;8.232;2023-11-19T03:50:51;6.30;;;4.80;;
79464;SDS011;68932;47.410;8.232;2023-11-19T03:53:19;5.00;;;3.90;;
79464;SDS011;68932;47.410;8.232;2023-11-19T03:55:47;4.70;;;4.20;;
79464;SDS011;68932;47.410;8.232;2023-11-19T03:58:15;7.00;;;4.90;;
79464;SDS011;68932;47.410;8.232;2023-11-19T04:00:44;5.30;;;4.30;;
79464;SDS011;68932;47.410;8.232;2023-11-19T04:03:12;5.10;;;3.70;;
79464;SDS011;68932;47.410;8.232;2023-11-19T04:05:40;4.60;;;3.90;;
79464;SDS011;68932;47.410;8.232;2023-11-19T04:08:08;4.40;;;3.90;;
79464;SDS011;68932;47.410;8.232;2023-11-19T04:10:37;4.90;;;3.40;;
79464;SDS011;68932;47.410;8.232;2023-11-19T04:13:05;4.60;;;3.60;;
79464;SDS011;68932;47.410;8.232;2023-11-19T04:15:33;4.70;;;3.70;;
79464;SDS011;68932;47.410;8.232;2023-11-19T04:18:01;4.10;;;3.40;;
79464;SDS011;68932;47.410;8.232;2023-11-19T04:20:30;5.40;;;3.90;;
79464;SDS011;68932;47.410;8.232;2023-11-19T04:22:58;6.10;;;3.00;;
79464;SDS011;68932;47.410;8.232;2023-11-19T04:25:26;4.20;;;3.10;;
79464;SDS011;68932;47.410;8.232;2023-11-19T04:27:54;4.80;;;3.30;;
79464;SDS011;68932;47.410;8.232;2023-11-19T04:30:23;3.60;;;2.70;;
79464;SDS011;68932;47.410;8.232;2023-11-19T04:32:51;4.30;;;2.90;;
79464;SDS011;68932;47.410;8.232;2023-11-19T04:35:19;4.20;;;2.90;;
79464;SDS011;68932;47.410;8.232;2023-11-19T04:37:48;4.00;;;3.20;;
79464;SDS011;68932;47.410;8.232;2023-11-19T04:40:16;4.30;;;3.20;;
79464;SDS011;68932;47.410;8.232;2023-11-19T04:42:44;4.60;;;4.00;;
79464;SDS011;68932;47.410;8.232;2023-11-19T04:45:13;4.10;;;3.30;;
79464;SDS011;68932;47.410;8.232;2023-11-19T04:47:41;3.40;;;3.00;;
79464;SDS011;68932;47.410;8.232;2023-11-19T04:50:10;4.00;;;3.60;;
79464;SDS011;68932;47.410;8.232;2023-11-19T04:52:39;3.90;;;3.00;;
79464;SDS011;68932;47.410;8.232;2023-11-19T04:55:07;5.40;;;2.90;;
79464;SDS011;68932;47.410;8.232;2023-11-19T04:57:36;3.80;;;2.50;;
79464;SDS011;68932;47.410;8.232;2023-11-19T05:00:05;3.80;;;2.60;;
79464;SDS011;68932;47.410;8.232;2023-11-19T05:02:34;3.20;;;2.50;;
79464;SDS011;68932;47.410;8.232;2023-11-19T05:05:03;3.80;;;2.70;;
79464;SDS011;68932;47.410;8.232;2023-11-19T05:07:31;5.50;;;2.70;;
79464;SDS011;68932;47.410;8.232;2023-11-19T05:10:01;4.50;;;3.40;;
79464;SDS011;68932;47.410;8.232;2023-11-19T05:12:30;3.00;;;2.30;;
79464;SDS011;68932;47.410;8.232;2023-11-19T05:14:58;4.60;;;2.90;;
79464;SDS011;68932;47.410;8.232;2023-11-19T05:17:26;5.20;;;2.50;;
79464;SDS011;68932;47.410;8.232;2023-11-19T05:19:54;2.70;;;2.40;;
79464;SDS011;68932;47.410;8.232;2023-11-19T05:22:23;3.90;;;2.40;;
79464;SDS011;68932;47.410;8.232;2023-11-19T05:24:51;4.20;;;3.20;;
79464;SDS011;68932;47.410;8.232;2023-11-19T05:27:19;3.20;;;2.70;;
79464;SDS011;68932;47.410;8.232;2023-11-19T05:29:48;3.70;;;3.00;;
79464;SDS011;68932;47.410;8.232;2023-11-19T05:32:16;3.60;;;2.60;;
79464;SDS011;68932;47.410;8.232;2023-11-19T05:34:44;3.80;;;2.90;;
79464;SDS011;68932;47.410;8.232;2023-11-19T05:37:12;4.80;;;3.10;;
79464;SDS011;68932;47.410;8.232;2023-11-19T05:39:41;4.80;;;3.10;;
79464;SDS011;68932;47.410;8.232;2023-11-19T05:42:11;5.40;;;3.30;;
79464;SDS011;68932;47.410;8.232;2023-11-19T05:44:39;3.60;;;3.00;;
79464;SDS011;68932;47.410;8.232;2023-11-19T05:47:07;3.70;;;2.80;;
79464;SDS011;68932;47.410;8.232;2023-11-19T05:49:35;3.70;;;3.20;;
79464;SDS011;68932;47.410;8.232;2023-11-19T05:52:04;4.20;;;3.00;;
79464;SDS011;68932;47.410;8.232;2023-11-19T05:54:32;3.10;;;2.70;;
79464;SDS011;68932;47.410;8.232;2023-11-19T05:57:00;3.70;;;2.80;;
79464;SDS011;68932;47.410;8.232;2023-11-19T05:59:29;5.70;;;2.70;;
79464;SDS011;68932;47.410;8.232;2023-11-19T06:01:58;4.50;;;3.40;;
79464;SDS011;68932;47.410;8.232;2023-11-19T06:04:27;4.00;;;3.20;;
79464;SDS011;68932;47.410;8.232;2023-11-19T06:06:55;3.50;;;2.70;;
79464;SDS011;68932;47.410;8.232;2023-11-19T06:09:24;4.30;;;2.70;;
79464;SDS011;68932;47.410;8.232;2023-11-19T06:11:52;5.70;;;3.10;;
79464;SDS011;68932;47.410;8.232;2023-11-19T06:14:20;3.60;;;2.70;;
79464;SDS011;68932;47.410;8.232;2023-11-19T06:16:48;4.60;;;3.40;;
79464;SDS011;68932;47.410;8.232;2023-11-19T06:19:17;4.90;;;2.90;;
79464;SDS011;68932;47.410;8.232;2023-11-19T06:21:45;4.90;;;2.80;;
79464;SDS011;68932;47.410;8.232;2023-11-19T06:24:13;3.80;;;3.00;;
79464;SDS011;68932;47.410;8.232;2023-11-19T06:26:41;4.10;;;2.80;;
79464;SDS011;68932;47.410;8.232;2023-11-19T06:29:10;3.70;;;2.70;;
79464;SDS011;68932;47.410;8.232;2023-11-19T06:31:38;4.30;;;2.90;;
79464;SDS011;68932;47.410;8.232;2023-11-19T06:34:08;3.80;;;3.00;;
79464;SDS011;68932;47.410;8.232;2023-11-19T06:36:36;4.90;;;3.10;;
79464;SDS011;68932;47.410;8.232;2023-11-19T06:39:05;3.40;;;2.30;;
79464;SDS011;68932;47.410;8.232;2023-11-19T06:41:33;3.00;;;2.70;;
79464;SDS011;68932;47.410;8.232;2023-11-19T06:44:02;2.60;;;2.00;;
79464;SDS011;68932;47.410;8.232;2023-11-19T06:46:30;2.80;;;2.20;;
79464;SDS011;68932;47.410;8.232;2023-11-19T06:48:59;3.30;;;2.20;;
79464;SDS011;68932;47.410;8.232;2023-11-19T06:51:27;3.00;;;2.40;;
79464;SDS011;68932;47.410;8.232;2023-11-19T06:53:55;4.10;;;2.70;;
79464;SDS011;68932;47.410;8.232;2023-11-19T06:56:23;4.50;;;2.80;;
79464;SDS011;68932;47.410;8.232;2023-11-19T06:58:52;3.20;;;2.30;;
79464;SDS011;68932;47.410;8.232;2023-11-19T07:01:20;4.50;;;2.70;;
79464;SDS011;68932;47.410;8.232;2023-11-19T07:03:48;3.50;;;2.50;;
79464;SDS011;68932;47.410;8.232;2023-11-19T07:06:17;4.40;;;3.50;;
79464;SDS011;68932;47.410;8.232;2023-11-19T07:08:45;3.10;;;2.70;;
79464;SDS011;68932;47.410;8.232;2023-11-19T07:11:14;3.80;;;2.30;;
79464;SDS011;68932;47.410;8.232;2023-11-19T07:13:42;3.60;;;2.70;;
79464;SDS011;68932;47.410;8.232;2023-11-19T07:16:11;4.40;;;3.00;;
79464;SDS011;68932;47.410;8.232;2023-11-19T07:18:40;3.80;;;2.30;;
79464;SDS011;68932;47.410;8.232;2023-11-19T07:21:08;3.10;;;2.70;;
79464;SDS011;68932;47.410;8.232;2023-11-19T07:23:36;3.70;;;2.50;;
79464;SDS011;68932;47.410;8.232;2023-11-19T07:26:06;3.70;;;2.60;;
79464;SDS011;68932;47.410;8.232;2023-11-19T07:28:34;4.40;;;3.00;;
79464;SDS011;68932;47.410;8.232;2023-11-19T07:31:03;3.70;;;2.50;;
79464;SDS011;68932;47.410;8.232;2023-11-19T07:33:32;4.90;;;2.70;;
79464;SDS011;68932;47.410;8.232;2023-11-19T07:36:00;4.00;;;3.50;;
79464;SDS011;68932;47.410;8.232;2023-11-19T07:38:28;5.00;;;3.00;;
79464;SDS011;68932;47.410;8.232;2023-11-19T07:40:57;7.10;;;2.80;;
79464;SDS011;68932;47.410;8.232;2023-11-19T07:43:25;3.30;;;2.30;;
79464;SDS011;68932;47.410;8.232;2023-11-19T07:45:53;4.00;;;3.40;;
79464;SDS011;68932;47.410;8.232;2023-11-19T07:48:22;4.40;;;2.90;;
79464;SDS011;68932;47.410;8.232;2023-11-19T07:50:50;3.60;;;3.20;;
79464;SDS011;68932;47.410;8.232;2023-11-19T07:53:19;3.40;;;2.70;;
79464;SDS011;68932;47.410;8.232;2023-11-19T07:55:47;4.20;;;2.60;;
79464;SDS011;68932;47.410;8.232;2023-11-19T07:58:15;4.40;;;2.30;;
79464;SDS011;68932;47.410;8.232;2023-11-19T08:00:44;3.30;;;2.50;;
79464;SDS011;68932;47.410;8.232;2023-11-19T08:03:12;2.90;;;2.10;;
79464;SDS011;68932;47.410;8.232;2023-11-19T08:05:40;2.70;;;2.40;;
79464;SDS011;68932;47.410;8.232;2023-11-19T08:08:09;2.90;;;2.50;;
79464;SDS011;68932;47.410;8.232;2023-11-19T08:10:37;3.60;;;2.90;;
79464;SDS011;68932;47.410;8.232;2023-11-19T08:13:06;2.70;;;2.00;;
79464;SDS011;68932;47.410;8.232;2023-11-19T08:15:34;3.20;;;2.70;;
79464;SDS011;68932;47.410;8.232;2023-11-19T08:18:03;3.70;;;2.80;;
79464;SDS011;68932;47.410;8.232;2023-11-19T08:20:31;3.50;;;2.70;;
79464;SDS011;68932;47.410;8.232;2023-11-19T08:22:59;4.10;;;2.60;;
79464;SDS011;68932;47.410;8.232;2023-11-19T08:25:28;4.00;;;2.70;;
79464;SDS011;68932;47.410;8.232;2023-11-19T08:27:56;3.00;;;2.30;;
79464;SDS011;68932;47.410;8.232;2023-11-19T08:30:25;4.50;;;3.20;;
79464;SDS011;68932;47.410;8.232;2023-11-19T08:32:53;3.20;;;2.50;;
79464;SDS011;68932;47.410;8.232;2023-11-19T08:35:21;3.40;;;3.10;;
79464;SDS011;68932;47.410;8.232;2023-11-19T08:37:49;3.30;;;3.00;;
79464;SDS011;68932;47.410;8.232;2023-11-19T08:40:17;3.40;;;2.90;;
79464;SDS011;68932;47.410;8.232;2023-11-19T08:42:46;3.10;;;2.60;;
79464;SDS011;68932;47.410;8.232;2023-11-19T08:45:14;4.20;;;2.70;;
79464;SDS011;68932;47.410;8.232;2023-11-19T08:47:43;6.20;;;3.00;;
79464;SDS011;68932;47.410;8.232;2023-11-19T08:50:11;4.30;;;2.60;;
79464;SDS011;68932;47.410;8.232;2023-11-19T08:52:40;3.10;;;2.40;;
79464;SDS011;68932;47.410;8.232;2023-11-19T08:55:08;3.00;;;2.60;;
79464;SDS011;68932;47.410;8.232;2023-11-19T08:57:36;2.90;;;2.40;;
79464;SDS011;68932;47.410;8.232;2023-11-19T09:00:06;4.70;;;2.30;;
79464;SDS011;68932;47.410;8.232;2023-11-19T09:02:36;3.10;;;2.10;;
79464;SDS011;68932;47.410;8.232;2023-11-19T09:05:05;2.20;;;1.80;;
79464;SDS011;68932;47.410;8.232;2023-11-19T09:07:34;3.60;;;1.80;;
79464;SDS011;68932;47.410;8.232;2023-11-19T09:10:02;4.10;;;2.80;;
79464;SDS011;68932;47.410;8.232;2023-11-19T09:12:32;12.40;;;7.10;;
79464;SDS011;68932;47.410;8.232;2023-11-19T09:15:00;6.20;;;4.40;;
79464;SDS011;68932;47.410;8.232;2023-11-19T09:17:29;3.00;;;2.30;;
79464;SDS011;68932;47.410;8.232;2023-11-19T09:19:57;2.90;;;2.10;;
79464;SDS011;68932;47.410;8.232;2023-11-19T09:22:25;2.70;;;2.50;;
79464;SDS011;68932;47.410;8.232;2023-11-19T09:24:54;3.40;;;2.30;;
79464;SDS011;68932;47.410;8.232;2023-11-19T09:27:22;5.30;;;3.90;;
79464;SDS011;68932;47.410;8.232;2023-11-19T09:29:50;3.70;;;2.10;;
79464;SDS011;68932;47.410;8.232;2023-11-19T09:32:18;2.70;;;2.40;;
79464;SDS011;68932;47.410;8.232;2023-11-19T09:34:47;4.10;;;2.00;;
79464;SDS011;68932;47.410;8.232;2023-11-19T09:37:15;4.00;;;1.90;;
79464;SDS011;68932;47.410;8.232;2023-11-19T09:39:43;4.80;;;2.10;;
79464;SDS011;68932;47.410;8.232;2023-11-19T09:42:11;4.00;;;2.50;;
79464;SDS011;68932;47.410;8.232;2023-11-19T09:44:39;3.20;;;2.50;;
79464;SDS011;68932;47.410;8.232;2023-11-19T09:47:10;4.60;;;3.90;;
79464;SDS011;68932;47.410;8.232;2023-11-19T09:49:40;2.70;;;2.00;;
79464;SDS011;68932;47.410;8.232;2023-11-19T09:52:10;4.70;;;2.20;;
79464;SDS011;68932;47.410;8.232;2023-11-19T09:54:38;2.60;;;2.10;;
79464;SDS011;68932;47.410;8.232;2023-11-19T09:57:06;2.60;;;2.20;;
79464;SDS011;68932;47.410;8.232;2023-11-19T09:59:36;2.90;;;1.80;;
79464;SDS011;68932;47.410;8.232;2023-11-19T10:02:05;3.60;;;1.90;;
79464;SDS011;68932;47.410;8.232;2023-11-19T10:04:34;2.40;;;1.70;;
79464;SDS011;68932;47.410;8.232;2023-11-19T10:07:04;2.90;;;1.50;;
79464;SDS011;68932;47.410;8.232;2023-11-19T10:09:32;2.90;;;1.80;;
79464;SDS011;68932;47.410;8.232;2023-11-19T10:12:01;6.40;;;4.00;;
79464;SDS011;68932;47.410;8.232;2023-11-19T10:14:30;3.50;;;2.20;;
79464;SDS011;68932;47.410;8.232;2023-11-19T10:17:03;5.20;;;2.80;;
79464;SDS011;68932;47.410;8.232;2023-11-19T10:19:33;4.70;;;1.90;;
79464;SDS011;68932;47.410;8.232;2023-11-19T10:22:04;3.10;;;2.40;;
79464;SDS011;68932;47.410;8.232;2023-11-19T10:24:33;2.50;;;1.90;;
79464;SDS011;68932;47.410;8.232;2023-11-19T10:27:01;4.40;;;1.80;;
79464;SDS011;68932;47.410;8.232;2023-11-19T10:29:33;3.60;;;2.40;;
79464;SDS011;68932;47.410;8.232;2023-11-19T10:32:04;3.80;;;2.60;;
79464;SDS011;68932;47.410;8.232;2023-11-19T10:34:33;3.30;;;2.00;;
79464;SDS011;68932;47.410;8.232;2023-11-19T10:37:01;3.60;;;2.40;;
79464;SDS011;68932;47.410;8.232;2023-11-19T10:39:37;4.50;;;2.80;;
79464;SDS011;68932;47.410;8.232;2023-11-19T10:42:19;5.90;;;3.70;;
79464;SDS011;68932;47.410;8.232;2023-11-19T10:44:48;3.00;;;2.10;;
79464;SDS011;68932;47.410;8.232;2023-11-19T10:47:17;3.50;;;2.40;;
79464;SDS011;68932;47.410;8.232;2023-11-19T10:49:46;3.50;;;2.40;;
79464;SDS011;68932;47.410;8.232;2023-11-19T10:52:17;3.70;;;2.30;;
79464;SDS011;68932;47.410;8.232;2023-11-19T10:54:47;3.20;;;2.50;;
79464;SDS011;68932;47.410;8.232;2023-11-19T10:57:19;3.50;;;2.70;;
79464;SDS011;68932;47.410;8.232;2023-11-19T10:59:55;2.50;;;2.20;;
79464;SDS011;68932;47.410;8.232;2023-11-19T11:02:29;3.30;;;1.90;;
79464;SDS011;68932;47.410;8.232;2023-11-19T11:05:06;2.80;;;2.40;;
79464;SDS011;68932;47.410;8.232;2023-11-19T11:07:36;3.20;;;1.80;;
79464;SDS011;68932;47.410;8.232;2023-11-19T11:10:07;2.20;;;1.80;;
79464;SDS011;68932;47.410;8.232;2023-11-19T11:12:38;2.80;;;2.30;;
79464;SDS011;68932;47.410;8.232;2023-11-19T11:17:37;3.30;;;2.40;;
79464;SDS011;68932;47.410;8.232;2023-11-19T11:20:09;3.10;;;2.20;;
79464;SDS011;68932;47.410;8.232;2023-11-19T11:22:40;3.30;;;2.40;;
79464;SDS011;68932;47.410;8.232;2023-11-19T11:25:22;2.30;;;1.70;;
79464;SDS011;68932;47.410;8.232;2023-11-19T11:28:03;3.90;;;2.00;;
79464;SDS011;68932;47.410;8.232;2023-11-19T11:30:43;2.20;;;1.80;;
79464;SDS011;68932;47.410;8.232;2023-11-19T11:33:26;3.70;;;2.10;;
79464;SDS011;68932;47.410;8.232;2023-11-19T11:36:05;2.90;;;1.80;;
79464;SDS011;68932;47.410;8.232;2023-11-19T11:38:43;3.10;;;2.50;;
79464;SDS011;68932;47.410;8.232;2023-11-19T11:41:16;4.10;;;1.70;;
79464;SDS011;68932;47.410;8.232;2023-11-19T11:49:18;4.00;;;1.60;;
79464;SDS011;68932;47.410;8.232;2023-11-19T11:52:00;3.10;;;1.80;;
79464;SDS011;68932;47.410;8.232;2023-11-19T11:54:29;2.20;;;1.80;;
79464;SDS011;68932;47.410;8.232;2023-11-19T11:59:49;3.70;;;1.50;;
79464;SDS011;68932;47.410;8.232;2023-11-19T12:02:18;2.50;;;1.60;;
79464;SDS011;68932;47.410;8.232;2023-11-19T12:04:49;3.60;;;2.00;;
79464;SDS011;68932;47.410;8.232;2023-11-19T12:07:19;2.20;;;1.80;;
79464;SDS011;68932;47.410;8.232;2023-11-19T12:09:48;3.60;;;1.70;;
79464;SDS011;68932;47.410;8.232;2023-11-19T12:12:21;3.70;;;1.90;;
79464;SDS011;68932;47.410;8.232;2023-11-19T12:15:02;2.40;;;1.70;;
79464;SDS011;68932;47.410;8.232;2023-11-19T12:17:46;2.00;;;1.70;;
79464;SDS011;68932;47.410;8.232;2023-11-19T12:20:15;3.20;;;1.90;;
79464;SDS011;68932;47.410;8.232;2023-11-19T12:22:46;3.10;;;2.50;;
79464;SDS011;68932;47.410;8.232;2023-11-19T12:25:15;2.30;;;1.70;;
79464;SDS011;68932;47.410;8.232;2023-11-19T12:27:45;3.60;;;1.90;;
79464;SDS011;68932;47.410;8.232;2023-11-19T12:30:18;3.30;;;2.50;;
79464;SDS011;68932;47.410;8.232;2023-11-19T12:32:50;3.20;;;1.80;;
79464;SDS011;68932;47.410;8.232;2023-11-19T12:35:19;3.50;;;1.90;;
79464;SDS011;68932;47.410;8.232;2023-11-19T12:37:48;2.40;;;1.80;;
79464;SDS011;68932;47.410;8.232;2023-11-19T12:40:17;3.40;;;1.80;;
79464;SDS011;68932;47.410;8.232;2023-11-19T12:42:47;2.40;;;1.60;;
79464;SDS011;68932;47.410;8.232;2023-11-19T12:45:16;2.00;;;1.70;;
79464;SDS011;68932;47.410;8.232;2023-11-19T12:47:45;2.90;;;1.70;;
79464;SDS011;68932;47.410;8.232;2023-11-19T12:50:14;2.00;;;1.70;;
79464;SDS011;68932;47.410;8.232;2023-11-19T12:52:43;2.10;;;1.40;;
79464;SDS011;68932;47.410;8.232;2023-11-19T12:55:28;3.10;;;1.70;;
79464;SDS011;68932;47.410;8.232;2023-11-19T12:57:57;4.10;;;2.10;;
79464;SDS011;68932;47.410;8.232;2023-11-19T13:00:25;3.40;;;2.60;;
79464;SDS011;68932;47.410;8.232;2023-11-19T13:02:55;2.80;;;2.10;;
79464;SDS011;68932;47.410;8.232;2023-11-19T13:05:27;3.80;;;1.50;;
79464;SDS011;68932;47.410;8.232;2023-11-19T13:08:00;2.80;;;1.80;;
79464;SDS011;68932;47.410;8.232;2023-11-19T13:10:30;2.00;;;1.30;;
79464;SDS011;68932;47.410;8.232;2023-11-19T13:13:05;1.70;;;1.40;;
79464;SDS011;68932;47.410;8.232;2023-11-19T13:15:34;4.90;;;2.10;;
79464;SDS011;68932;47.410;8.232;2023-11-19T13:18:03;2.50;;;2.20;;
79464;SDS011;68932;47.410;8.232;2023-11-19T13:20:31;2.00;;;1.50;;
79464;SDS011;68932;47.410;8.232;2023-11-19T13:23:00;1.70;;;1.60;;
79464;SDS011;68932;47.410;8.232;2023-11-19T13:25:29;2.20;;;1.30;;
79464;SDS011;68932;47.410;8.232;2023-11-19T13:27:58;1.50;;;1.30;;
79464;SDS011;68932;47.410;8.232;2023-11-19T13:30:27;1.90;;;1.30;;
79464;SDS011;68932;47.410;8.232;2023-11-19T13:32:55;2.30;;;1.70;;
79464;SDS011;68932;47.410;8.232;2023-11-19T13:35:23;2.00;;;1.30;;
79464;SDS011;68932;47.410;8.232;2023-11-19T13:37:51;2.20;;;1.50;;
79464;SDS011;68932;47.410;8.232;2023-11-19T13:40:20;2.30;;;1.70;;
79464;SDS011;68932;47.410;8.232;2023-11-19T13:42:48;1.80;;;1.40;;
79464;SDS011;68932;47.410;8.232;2023-11-19T13:45:16;1.90;;;1.30;;
79464;SDS011;68932;47.410;8.232;2023-11-19T13:47:45;2.20;;;1.50;;
79464;SDS011;68932;47.410;8.232;2023-11-19T13:50:14;1.90;;;1.30;;
79464;SDS011;68932;47.410;8.232;2023-11-19T13:52:43;2.00;;;1.40;;
79464;SDS011;68932;47.410;8.232;2023-11-19T13:55:12;1.50;;;1.10;;
79464;SDS011;68932;47.410;8.232;2023-11-19T13:57:41;2.10;;;1.40;;
79464;SDS011;68932;47.410;8.232;2023-11-19T14:00:11;3.10;;;1.30;;
79464;SDS011;68932;47.410;8.232;2023-11-19T14:02:40;2.50;;;1.70;;
79464;SDS011;68932;47.410;8.232;2023-11-19T14:05:09;1.80;;;1.60;;
79464;SDS011;68932;47.410;8.232;2023-11-19T14:07:38;3.60;;;1.40;;
79464;SDS011;68932;47.410;8.232;2023-11-19T14:10:07;4.00;;;1.60;;
79464;SDS011;68932;47.410;8.232;2023-11-19T14:12:36;1.80;;;1.20;;
79464;SDS011;68932;47.410;8.232;2023-11-19T14:15:05;2.30;;;1.50;;
79464;SDS011;68932;47.410;8.232;2023-11-19T14:17:35;2.60;;;1.30;;
79464;SDS011;68932;47.410;8.232;2023-11-19T14:20:04;3.00;;;1.70;;
79464;SDS011;68932;47.410;8.232;2023-11-19T14:22:33;3.50;;;1.20;;
79464;SDS011;68932;47.410;8.232;2023-11-19T14:25:02;2.50;;;1.40;;
79464;SDS011;68932;47.410;8.232;2023-11-19T14:27:31;3.00;;;1.20;;
79464;SDS011;68932;47.410;8.232;2023-11-19T14:29:59;1.50;;;1.40;;
79464;SDS011;68932;47.410;8.232;2023-11-19T14:32:27;1.20;;;0.90;;
79464;SDS011;68932;47.410;8.232;2023-11-19T14:34:55;1.80;;;1.40;;
79464;SDS011;68932;47.410;8.232;2023-11-19T14:37:24;3.10;;;1.40;;
79464;SDS011;68932;47.410;8.232;2023-11-19T14:39:52;2.50;;;1.20;;
79464;SDS011;68932;47.410;8.232;2023-11-19T14:42:20;2.00;;;1.20;;
79464;SDS011;68932;47.410;8.232;2023-11-19T14:44:49;2.30;;;2.10;;
79464;SDS011;68932;47.410;8.232;2023-11-19T14:47:17;2.00;;;1.80;;
79464;SDS011;68932;47.410;8.232;2023-11-19T14:49:45;2.50;;;1.50;;
79464;SDS011;68932;47.410;8.232;2023-11-19T14:52:14;1.50;;;1.20;;
79464;SDS011;68932;47.410;8.232;2023-11-19T14:54:42;2.10;;;1.40;;
79464;SDS011;68932;47.410;8.232;2023-11-19T14:57:11;3.30;;;1.60;;
79464;SDS011;68932;47.410;8.232;2023-11-19T14:59:39;3.00;;;1.20;;
79464;SDS011;68932;47.410;8.232;2023-11-19T15:02:07;2.00;;;1.50;;
79464;SDS011;68932;47.410;8.232;2023-11-19T15:04:35;1.90;;;1.20;;
79464;SDS011;68932;47.410;8.232;2023-11-19T15:07:04;1.40;;;1.20;;
79464;SDS011;68932;47.410;8.232;2023-11-19T15:09:32;2.70;;;1.20;;